ENNA METAR and TAF weather

Enter ICAO airport designator
Station Type Date Time Source
ENNA METAR 2020/12/01 20:50 UTC NOAA

ENNA 012050Z 27009KT 9999 FEW039 SCT082 M01/M04 Q1015 RMK WIND 1800FT 27016KT


Station Type Date Time Source
ENNA Decoded METAR 2020/12/01 20:50 UTC NOAA

Banak, Norway (ENNA) 70-04N 024-59E 8M
Dec 01, 2020 - 03:50 PM EST / 2020.12.01 2050 UTC
Wind: from the W (270 degrees) at 10 MPH (9 KT):0
Visibility: greater than 7 mile(s):0
Sky conditions: partly cloudy
Temperature: 30 F (-1 C)
Windchill: 21 F (-6 C):1
Dew Point: 24 F (-4 C)
Relative Humidity: 80%
Pressure (altimeter): 29.97 in. Hg (1015 hPa)
ob: ENNA 012050Z 27009KT 9999 FEW039 SCT082 M01/M04 Q1015 RMK WIND 1800FT 27016KT
cycle: 21

Station Type Date Time Source
ENNA TAF 2020/12/01 18:56 UTC NOAA

TAF ENNA 011700Z 0118/0218 27008KT 9999 FEW030 BKN050
BECMG 0200/0203 19010KT
BECMG 0206/0208 18020KT
TEMPO 0208/0215 18025G35KT

Example: see airport list